Houston Express — DCCR2 — position and weather

sailwx.info

Track history (hours):
 
Tides and Currents Weather Stations Pressure Air Temp Water Temp Dewpoint Dewpoint Depression Visibility Wind Speed Wind Dir Waves Ship Positions

Houston Express

Last reported at 2019-Sep-23 01:56 UTC. Time now 2019-Sep-23 02:41 UTC.
Position N 38°60' E 003°16'.

Length 332.4 m; beam 43.2 m; draft 14.5 m.

Type: Ship (hazmat cat D). MMSI: 211744000.

Date/timePositionNaut miles runAvg speedWind from/ knotsBaromVisibWave heightAir tempDewpointWater temp
2019-Sep-23 01:56N 38°60' E 003°16'819.1
2019-Sep-23 01:30N 39°01' E 003°06'1019.2
2019-Sep-23 01:00N 39°03' E 002°54'919.0
2019-Sep-23 00:30N 39°04' E 002°42'1019.0
2019-Sep-23 00:00N 39°06' E 002°30'1018.9
2019-Sep-22 23:30N 39°07' E 002°17'11219.5
2019-Sep-22 17:43N 39°23' W 000°06'418.9
2019-Sep-22 17:30N 39°24' W 000°11'611.9
2019-Sep-22 17:00N 39°26' W 000°19'1 1.0
2019-Sep-22 16:15N 39°26' W 000°20'0 0.0
2019-Sep-22 15:58N 39°26' W 000°20'0 0.0
2019-Sep-22 15:28N 39°26' W 000°20'0 0.0
2019-Sep-22 15:00N 39°26' W 000°20'0 0.0
2019-Sep-22 14:21N 39°26' W 000°20'0 0.0
2019-Sep-22 13:51N 39°26' W 000°20'0 0.0
2019-Sep-22 13:30N 39°26' W 000°20'0 0.0
2019-Sep-22 13:00N 39°26' W 000°20'0 0.0
2019-Sep-22 12:30N 39°26' W 000°20'0 0.0
2019-Sep-22 11:59N 39°26' W 000°20'0 0.0
2019-Sep-22 11:11N 39°26' W 000°20'0 0.0
2019-Sep-22 10:59N 39°26' W 000°20'0 0.0
2019-Sep-22 10:28N 39°26' W 000°20'0 0.0
2019-Sep-22 08:55N 39°26' W 000°20'0 0.0
2019-Sep-22 08:30N 39°26' W 000°20'0 0.0
2019-Sep-22 08:00N 39°26' W 000°20'0 0.0
2019-Sep-22 07:24N 39°26' W 000°20'0 0.0
2019-Sep-22 07:00N 39°26' W 000°20'0 0.0
2019-Sep-22 06:30N 39°26' W 000°20'0 0.0
2019-Sep-22 05:59N 39°26' W 000°20'0 0.0
2019-Sep-22 05:26N 39°26' W 000°20'0 0.0
2019-Sep-22 04:58N 39°26' W 000°20'0 0.0
2019-Sep-22 04:30N 39°26' W 000°20'0 0.0
2019-Sep-22 04:00N 39°26' W 000°20'0 0.0
2019-Sep-22 03:30N 39°26' W 000°20'0 0.0
2019-Sep-22 02:58N 39°26' W 000°20'0 0.0
2019-Sep-22 02:30N 39°26' W 000°20'0 0.0
2019-Sep-22 01:43N 39°26' W 000°20'0 0.0
2019-Sep-22 01:26N 39°26' W 000°20'0 0.0
2019-Sep-22 00:55N 39°26' W 000°20'0 0.0
2019-Sep-22 00:16N 39°26' W 000°20'0 0.0
2019-Sep-21 23:52N 39°26' W 000°20'0 0.0
2019-Sep-21 23:26N 39°26' W 000°20'0 0.0
2019-Sep-21 22:58N 39°26' W 000°20'0 0.0
2019-Sep-21 22:27N 39°26' W 000°20'0 0.0
2019-Sep-21 21:56N 39°26' W 000°20'0 0.0
2019-Sep-21 21:30N 39°26' W 000°20'0 0.0
2019-Sep-21 20:36N 39°26' W 000°20'0 0.0
2019-Sep-21 20:30N 39°26' W 000°20'0 0.0
2019-Sep-21 20:00N 39°26' W 000°20'0 0.1
2019-Sep-21 19:30N 39°26' W 000°20'2 4.9
2019-Sep-21 19:00N 39°25' W 000°17'2 3.3
2019-Sep-21 18:27N 39°24' W 000°15'0 0.9
2019-Sep-21 17:59N 39°24' W 000°15'0 0.1
2019-Sep-21 17:25N 39°24' W 000°15'0 0.0
2019-Sep-21 17:00N 39°24' W 000°15'0 0.0
2019-Sep-21 16:29N 39°24' W 000°15'0 0.1
2019-Sep-21 15:58N 39°24' W 000°15'0 0.1
2019-Sep-21 15:28N 39°24' W 000°15'0 0.1
2019-Sep-21 14:58N 39°24' W 000°15'0 0.0
2019-Sep-21 14:30N 39°24' W 000°15'0 0.0
2019-Sep-21 14:00N 39°24' W 000°15'0 0.0
2019-Sep-21 13:30N 39°24' W 000°15'0 0.0
2019-Sep-21 12:59N 39°24' W 000°15'0 0.0
2019-Sep-21 12:29N 39°24' W 000°15'0 0.0
2019-Sep-21 11:59N 39°24' W 000°15'0 0.1
2019-Sep-21 11:29N 39°24' W 000°15'1 1.8
2019-Sep-21 11:00N 39°24' W 000°16'3 5.8
2019-Sep-21 10:30N 39°26' W 000°19'0 0.2
2019-Sep-21 09:50N 39°26' W 000°19'0 0.0
2019-Sep-21 09:26N 39°26' W 000°19'0 0.0
2019-Sep-21 08:59N 39°26' W 000°19'0 0.0
2019-Sep-21 08:29N 39°26' W 000°19'0 0.0
2019-Sep-21 07:59N 39°26' W 000°19'0 0.0
2019-Sep-21 07:26N 39°26' W 000°19'0 0.0
2019-Sep-21 06:59N 39°26' W 000°19'0 0.0
2019-Sep-21 06:30N 39°26' W 000°19'0 0.0
2019-Sep-21 06:00N 39°26' W 000°19'0 0.0
2019-Sep-21 05:30N 39°26' W 000°19'0 0.0
2019-Sep-21 05:00N 39°26' W 000°19'0 0.0
2019-Sep-21 04:30N 39°26' W 000°19'0 0.0
2019-Sep-21 03:53N 39°26' W 000°19'0 0.0
2019-Sep-21 03:26N 39°26' W 000°19'0 0.0
2019-Sep-21 02:58N 39°26' W 000°19'0 0.0
2019-Sep-21 02:28N 39°26' W 000°19'0 0.0
2019-Sep-21 01:42N 39°26' W 000°19'0 0.0
2019-Sep-21 01:24N 39°26' W 000°19'0 0.0
2019-Sep-21 00:58N 39°26' W 000°19'0 0.0
2019-Sep-21 00:30N 39°26' W 000°19'0 0.0
2019-Sep-21 00:00N 39°26' W 000°19'1 2.0
2019-Sep-20 23:30N 39°26' W 000°18'3 5.7
2019-Sep-20 23:00N 39°25' W 000°15'2 3.3
2019-Sep-20 22:30N 39°25' W 000°12'0 0.6
2019-Sep-20 22:00N 39°24' W 000°12'4 5.9
2019-Sep-20 21:24N 39°21' W 000°10'15116.0
2019-Sep-20 12:00N 37°00' W 001°18'40816.1 060 / 171014.8 2.2 25.020.425.0
2019-Sep-19 10:42N 37°44' W 009°48'819.0
2019-Sep-19 10:18N 37°52' W 009°50'619.0
2019-Sep-19 09:59N 37°57' W 009°52'1419.0
2019-Sep-19 09:16N 38°10' W 009°57'619.1
2019-Sep-19 08:58N 38°16' W 010°00'919.1
2019-Sep-19 08:30N 38°24' W 010°03'1019.3
2019-Sep-19 07:59N 38°34' W 010°06'919.4
2019-Sep-19 07:30N 38°43' W 010°05'1019.5
2019-Sep-19 07:00N 38°53' W 010°04'1019.3
2019-Sep-19 06:30N 39°03' W 010°03'1019.3
2019-Sep-19 06:00N 39°12' W 010°04'33318.5
2019-Sep-18 12:00N 44°42' W 009°00'13719.4 090 / 211019.6 2.2 21.016.420.0
2019-Sep-18 04:55N 46°44' W 007°31'819.8
2019-Sep-18 04:30N 46°51' W 007°25'1019.3
2019-Sep-18 04:00N 47°00' W 007°19'919.0
2019-Sep-18 03:30N 47°08' W 007°12'1019.2
2019-Sep-18 03:00N 47°17' W 007°06'1019.3
2019-Sep-18 02:30N 47°25' W 006°59'1019.4
2019-Sep-18 02:00N 47°34' W 006°52'918.5
2019-Sep-18 01:30N 47°42' W 006°46'918.9
2019-Sep-18 01:00N 47°50' W 006°39'918.6
2019-Sep-18 00:30N 47°58' W 006°32'919.0
2019-Sep-18 00:00N 48°07' W 006°25'1019.0
2019-Sep-17 23:30N 48°15' W 006°18'1019.5
2019-Sep-17 23:00N 48°23' W 006°11'1019.4
2019-Sep-17 22:30N 48°32' W 006°04'1019.5
2019-Sep-17 22:00N 48°40' W 005°56'1019.3
2019-Sep-17 21:30N 48°49' W 005°49'918.8
2019-Sep-17 21:00N 48°55' W 005°39'919.0
2019-Sep-17 20:30N 48°60' W 005°26'918.9
2019-Sep-17 20:00N 49°04' W 005°13'1019.3
2019-Sep-17 19:30N 49°09' W 005°01'1018.8
2019-Sep-17 18:58N 49°14' W 004°47'1118.5
2019-Sep-17 18:22N 49°20' W 004°33'918.3
2019-Sep-17 17:53N 49°25' W 004°21'2118.2
2019-Sep-17 16:44N 49°37' W 003°55'2219.0
2019-Sep-17 15:34N 49°48' W 003°26'319.7
2019-Sep-17 15:25N 49°50' W 003°22'820.1
2019-Sep-17 15:00N 49°54' W 003°11'1020.2
2019-Sep-17 14:30N 49°58' W 002°56'1020.5
2019-Sep-17 14:00N 50°01' W 002°41'1221.2
2019-Sep-17 13:26N 50°04' W 002°23'920.8
2019-Sep-17 12:59N 50°07' W 002°09'919.9
2019-Sep-17 12:30N 50°09' W 001°54'919.0
2019-Sep-17 12:01N 50°12' W 001°40'918.2
2019-Sep-17 11:30N 50°14' W 001°26'917.6
2019-Sep-17 10:59N 50°17' W 001°13'917.3
2019-Sep-17 10:26N 50°20' W 000°59'717.1
2019-Sep-17 10:00N 50°22' W 000°48'1117.4
2019-Sep-17 09:23N 50°25' W 000°31'1118.3
2019-Sep-17 08:47N 50°28' W 000°15'4518.8
2019-Sep-17 06:23N 50°44' E 000°52'719.3
2019-Sep-17 06:00N 50°49' E 001°00'1220.2
2019-Sep-17 05:26N 50°57' E 001°14'920.2
2019-Sep-17 05:00N 51°02' E 001°24'1019.5
2019-Sep-17 04:31N 51°08' E 001°36'918.8
2019-Sep-17 04:01N 51°14' E 001°47'918.4
2019-Sep-17 03:30N 51°22' E 001°55'918.2
2019-Sep-17 03:00N 51°30' E 002°03'918.2
2019-Sep-17 02:30N 51°36' E 002°13'3618.2
2019-Sep-17 00:32N 52°02' E 002°54'219.2
2019-Sep-17 00:25N 52°02' E 002°58'1119.3
2019-Sep-16 23:52N 52°03' E 003°15'719.6
2019-Sep-16 23:29N 52°03' E 003°27'919.4
2019-Sep-16 23:00N 52°03' E 003°42'713.7
2019-Sep-16 22:30N 52°02' E 003°53'611.9
2019-Sep-16 22:00N 51°60' E 004°02'3 5.1
2019-Sep-16 21:30N 51°58' E 004°05'0 0.8
2019-Sep-16 21:00N 51°58' E 004°04'0 0.0
2019-Sep-16 20:30N 51°58' E 004°04'0 0.0
2019-Sep-16 20:00N 51°58' E 004°04'0 0.0
2019-Sep-16 19:30N 51°58' E 004°04'0 0.0
2019-Sep-16 19:00N 51°58' E 004°04'0 0.0
2019-Sep-16 18:30N 51°58' E 004°04'0 0.0
2019-Sep-16 18:00N 51°58' E 004°04'0 0.0
2019-Sep-16 17:30N 51°58' E 004°04'0 0.0
2019-Sep-16 17:00N 51°58' E 004°04'0 0.0
2019-Sep-16 16:30N 51°58' E 004°04'0 0.0
2019-Sep-16 16:00N 51°58' E 004°04'0 0.0
2019-Sep-16 15:30N 51°58' E 004°04'0 0.0
2019-Sep-16 15:00N 51°58' E 004°04'0 0.0
2019-Sep-16 14:29N 51°58' E 004°04'0 0.0
2019-Sep-16 13:59N 51°58' E 004°04'0 0.0
2019-Sep-16 13:30N 51°58' E 004°04'0 0.0
2019-Sep-16 13:00N 51°58' E 004°04'0 0.0
2019-Sep-16 12:30N 51°58' E 004°04'0 0.0
2019-Sep-16 12:00N 51°58' E 004°04'0 0.0
2019-Sep-16 11:30N 51°58' E 004°04'0 0.0
2019-Sep-16 11:00N 51°58' E 004°04'0 0.0
2019-Sep-16 10:29N 51°58' E 004°04'0 0.0
2019-Sep-16 09:58N 51°58' E 004°04'0 0.0
2019-Sep-16 09:28N 51°58' E 004°04'0 0.0
2019-Sep-16 09:00N 51°58' E 004°04'0 0.0
2019-Sep-16 08:30N 51°58' E 004°04'0 0.0
2019-Sep-16 08:00N 51°58' E 004°04'0 0.0
2019-Sep-16 07:30N 51°58' E 004°04'0 0.0
2019-Sep-16 07:00N 51°58' E 004°04'0 0.0
2019-Sep-16 06:30N 51°58' E 004°04'0 0.0
2019-Sep-16 06:00N 51°58' E 004°04'0 0.0
2019-Sep-16 05:30N 51°58' E 004°04'0 0.0
2019-Sep-16 05:00N 51°58' E 004°04'0 0.0
2019-Sep-16 04:30N 51°58' E 004°04'0 0.0
2019-Sep-16 03:59N 51°58' E 004°04'0 0.0
2019-Sep-16 03:29N 51°58' E 004°04'0 0.0
2019-Sep-16 02:59N 51°58' E 004°04'0 0.0
2019-Sep-16 02:26N 51°58' E 004°04'0 0.0
2019-Sep-16 01:59N 51°58' E 004°04'0 0.2
2019-Sep-16 01:30N 51°58' E 004°04'2 3.1
2019-Sep-16 01:01N 51°59' E 004°03'4 7.5
2019-Sep-16 00:31N 52°00' E 003°58'612.8
2019-Sep-16 00:00N 51°59' E 003°47'4 8.3
2019-Sep-15 23:31N 51°58' E 003°41'5 9.2
2019-Sep-15 23:00N 51°56' E 003°34'3 5.0
2019-Sep-15 22:27N 51°55' E 003°30'0 0.0
2019-Sep-15 21:15N 51°55' E 003°30'0 0.0
2019-Sep-15 21:00N 51°55' E 003°30'0 0.0
2019-Sep-15 20:15N 51°55' E 003°30'0 0.0
2019-Sep-15 19:39N 51°55' E 003°30'0 0.2
2019-Sep-15 19:18N 51°55' E 003°30'0 0.1
2019-Sep-15 19:00N 51°55' E 003°30'4 6.0
2019-Sep-15 18:25N 51°53' E 003°26'916.9
2019-Sep-15 17:55N 51°46' E 003°16'615.3
2019-Sep-15 17:30N 51°40' E 003°13'1316.3
2019-Sep-15 16:43N 51°29' E 003°03'417.2
2019-Sep-15 16:30N 51°26' E 002°59'815.3
2019-Sep-15 15:58N 51°24' E 003°12'816.8
2019-Sep-15 15:30N 51°25' E 003°24'714.4
2019-Sep-15 15:01N 51°26' E 003°36'510.5
2019-Sep-15 14:31N 51°23' E 003°43'713.5
2019-Sep-15 14:00N 51°21' E 003°53'612.6
2019-Sep-15 13:30N 51°26' E 003°59'611.4
2019-Sep-15 13:00N 51°22' E 004°06'5 9.8
2019-Sep-15 12:30N 51°22' E 004°14'4 7.7
2019-Sep-15 12:00N 51°18' E 004°17'1 1.6
2019-Sep-15 11:28N 51°18' E 004°16'0 0.0
2019-Sep-15 10:58N 51°18' E 004°16'0 0.0
2019-Sep-15 10:30N 51°18' E 004°16'0 0.0
2019-Sep-15 10:00N 51°18' E 004°16'0 0.0
2019-Sep-15 09:30N 51°18' E 004°16'0 0.0
2019-Sep-15 09:00N 51°18' E 004°16'0 0.0
2019-Sep-15 08:30N 51°18' E 004°16'0 0.0
2019-Sep-15 08:00N 51°18' E 004°16'0 0.0
2019-Sep-15 07:30N 51°18' E 004°16'0 0.0
2019-Sep-15 07:00N 51°18' E 004°16'0 0.0
2019-Sep-15 06:30N 51°18' E 004°16'0 0.0
2019-Sep-15 06:00N 51°18' E 004°16'0 0.0
2019-Sep-15 05:30N 51°18' E 004°16'0 0.0
2019-Sep-15 04:57N 51°18' E 004°16'0 0.0
2019-Sep-15 04:30N 51°18' E 004°16'0 0.0
2019-Sep-15 04:00N 51°18' E 004°16'0 0.0
2019-Sep-15 03:29N 51°18' E 004°16'0 0.0
2019-Sep-15 02:59N 51°18' E 004°16'0 0.0
2019-Sep-15 02:29N 51°18' E 004°16'0 0.0
2019-Sep-15 01:59N 51°18' E 004°16'0 0.0
2019-Sep-15 01:29N 51°18' E 004°16'0 0.0
2019-Sep-15 00:59N 51°18' E 004°16'0 0.0
2019-Sep-15 00:29N 51°18' E 004°16'0 0.0
2019-Sep-14 23:59N 51°18' E 004°16'0 0.0
2019-Sep-14 23:29N 51°18' E 004°16'0 0.0
2019-Sep-14 22:59N 51°18' E 004°16'0 0.0
2019-Sep-14 22:28N 51°18' E 004°16'0 0.0
2019-Sep-14 21:58N 51°18' E 004°16'0 0.0
2019-Sep-14 21:28N 51°18' E 004°16'0 0.0
2019-Sep-14 20:57N 51°18' E 004°16'0 0.0
2019-Sep-14 20:30N 51°18' E 004°16'0 0.0
2019-Sep-14 20:00N 51°18' E 004°16'0 0.0
2019-Sep-14 19:30N 51°18' E 004°16'0 0.0
2019-Sep-14 19:00N 51°18' E 004°16'0 0.1
2019-Sep-14 18:30N 51°18' E 004°16'0 0.6
2019-Sep-14 17:59N 51°17' E 004°15'0 0.0
2019-Sep-14 17:26N 51°17' E 004°15'0 0.0
2019-Sep-14 16:59N 51°17' E 004°15'0 0.0
2019-Sep-14 16:29N 51°17' E 004°15'0 0.0
2019-Sep-14 15:59N 51°17' E 004°15'0 0.0
2019-Sep-14 15:29N 51°17' E 004°15'0 0.0
2019-Sep-14 14:59N 51°17' E 004°15'0 0.0
2019-Sep-14 14:23N 51°17' E 004°15'0 0.0
2019-Sep-14 13:59N 51°17' E 004°15'0 0.0
2019-Sep-14 13:29N 51°17' E 004°15'0 0.0
2019-Sep-14 12:59N 51°17' E 004°15'0 0.0
2019-Sep-14 12:29N 51°17' E 004°15'0 0.0
2019-Sep-14 11:59N 51°17' E 004°15'0 0.0
2019-Sep-14 11:30N 51°17' E 004°15'0 0.0
2019-Sep-14 10:59N 51°17' E 004°15'0 0.0
2019-Sep-14 10:29N 51°17' E 004°15'0 0.0
2019-Sep-14 09:56N 51°17' E 004°15'0 0.0
2019-Sep-14 09:29N 51°17' E 004°15'0 0.0
2019-Sep-14 08:59N 51°17' E 004°15'0 0.0
2019-Sep-14 08:29N 51°17' E 004°15'0 0.0
2019-Sep-14 07:59N 51°17' E 004°15'0 0.0
2019-Sep-14 07:30N 51°17' E 004°15'0 0.0
2019-Sep-14 06:58N 51°17' E 004°15'0 0.0
2019-Sep-14 06:28N 51°17' E 004°15'0 0.0
2019-Sep-14 05:58N 51°17' E 004°15'0 0.0
2019-Sep-14 05:28N 51°17' E 004°15'0 0.0
2019-Sep-14 04:58N 51°17' E 004°15'0 0.0
2019-Sep-14 04:28N 51°17' E 004°15'0 0.0
2019-Sep-14 03:58N 51°17' E 004°15'0 0.0
2019-Sep-14 03:28N 51°17' E 004°15'0 0.0
2019-Sep-14 02:58N 51°17' E 004°15'0 0.0
2019-Sep-14 02:30N 51°17' E 004°15'0 0.0
2019-Sep-14 02:00N 51°17' E 004°15'0 0.0
2019-Sep-14 01:30N 51°17' E 004°15'0 0.0
2019-Sep-14 00:59N 51°17' E 004°15'0 0.0
2019-Sep-14 00:29N 51°17' E 004°15'0 0.0
2019-Sep-13 23:58N 51°17' E 004°15'0 0.0
2019-Sep-13 23:30N 51°17' E 004°15'0 0.0
2019-Sep-13 22:59N 51°17' E 004°15'0 0.0
2019-Sep-13 22:29N 51°17' E 004°15'0 0.0
2019-Sep-13 21:59N 51°17' E 004°15'0 0.0
2019-Sep-13 21:29N 51°17' E 004°15'0 0.0
2019-Sep-13 20:59N 51°17' E 004°15'0 0.0
2019-Sep-13 20:29N 51°17' E 004°15'0 0.0
2019-Sep-13 19:59N 51°17' E 004°15'0 0.0
2019-Sep-13 19:29N 51°17' E 004°15'0 0.0
2019-Sep-13 19:01N 51°17' E 004°15'0 0.0
2019-Sep-13 18:30N 51°17' E 004°15'0 0.1
2019-Sep-13 18:00N 51°17' E 004°15'1 2.8
2019-Sep-13 17:30N 51°19' E 004°16'3 6.6
2019-Sep-13 17:00N 51°22' E 004°14'4 8.3
2019-Sep-13 16:30N 51°22' E 004°07'611.4
2019-Sep-13 16:00N 51°26' E 004°00'510.9
2019-Sep-13 15:30N 51°22' E 003°55'612.5
2019-Sep-13 15:00N 51°22' E 003°45'612.1
2019-Sep-13 14:30N 51°26' E 003°38'510.2
2019-Sep-13 14:00N 51°25' E 003°30'1618.9
2019-Sep-13 13:10N 51°24' E 003°05'1118.6
2019-Sep-13 12:33N 51°24' E 002°46'214.6
2019-Sep-13 12:23N 51°22' E 002°43'513.1
2019-Sep-13 11:59N 51°22' E 002°35'919.5
2019-Sep-13 11:31N 51°19' E 002°21'917.8
2019-Sep-13 11:00N 51°20' E 002°07'815.9
2019-Sep-13 10:30N 51°24' E 001°56'816.2
2019-Sep-13 10:01N 51°31' E 001°49'917.1
2019-Sep-13 09:30N 51°39' E 001°44'918.7
2019-Sep-13 09:00N 51°49' E 001°43'4 8.2
2019-Sep-13 08:30N 51°49' E 001°36'815.2
2019-Sep-13 08:00N 51°42' E 001°29'817.0
2019-Sep-13 07:30N 51°37' E 001°19'917.2
2019-Sep-13 07:00N 51°32' E 001°07'917.2
2019-Sep-13 06:30N 51°29' E 000°54'816.0
2019-Sep-13 06:01N 51°30' E 000°41'612.2
2019-Sep-13 05:31N 51°30' E 000°31'1 2.1
2019-Sep-13 05:00N 51°30' E 000°30'0 0.0
2019-Sep-13 04:30N 51°30' E 000°30'0 0.0
2019-Sep-13 04:00N 51°30' E 000°30'0 0.0
2019-Sep-13 03:30N 51°30' E 000°30'0 0.0
2019-Sep-13 03:00N 51°30' E 000°30'0 0.0
2019-Sep-13 02:30N 51°30' E 000°30'  
Track history (hours):
 
Tides and Currents Weather Stations Pressure Air Temp Water Temp Dewpoint Dewpoint Depression Visibility Wind Speed Wind Dir Waves Ship Positions

Houston Express

Last reported at 2019-Sep-23 01:56 UTC. Time now 2019-Sep-23 02:41 UTC.
Position N 38°60' E 003°16'.

Length 332.4 m; beam 43.2 m; draft 14.5 m.

Type: Ship (hazmat cat D). MMSI: 211744000.

Date/timePositionNaut miles runAvg speedWind from/ knotsBaromVisibWave heightAir tempDewpointWater temp
2019-Sep-23 01:56N 38°60' E 003°16'819.1
2019-Sep-23 01:30N 39°01' E 003°06'1019.2
2019-Sep-23 01:00N 39°03' E 002°54'919.0
2019-Sep-23 00:30N 39°04' E 002°42'1019.0
2019-Sep-23 00:00N 39°06' E 002°30'1018.9
2019-Sep-22 23:30N 39°07' E 002°17'11219.5
2019-Sep-22 17:43N 39°23' W 000°06'418.9
2019-Sep-22 17:30N 39°24' W 000°11'611.9
2019-Sep-22 17:00N 39°26' W 000°19'1 1.0
2019-Sep-22 16:15N 39°26' W 000°20'0 0.0
2019-Sep-22 15:58N 39°26' W 000°20'0 0.0
2019-Sep-22 15:28N 39°26' W 000°20'0 0.0
2019-Sep-22 15:00N 39°26' W 000°20'0 0.0
2019-Sep-22 14:21N 39°26' W 000°20'0 0.0
2019-Sep-22 13:51N 39°26' W 000°20'0 0.0
2019-Sep-22 13:30N 39°26' W 000°20'0 0.0
2019-Sep-22 13:00N 39°26' W 000°20'0 0.0
2019-Sep-22 12:30N 39°26' W 000°20'0 0.0
2019-Sep-22 11:59N 39°26' W 000°20'0 0.0
2019-Sep-22 11:11N 39°26' W 000°20'0 0.0
2019-Sep-22 10:59N 39°26' W 000°20'0 0.0
2019-Sep-22 10:28N 39°26' W 000°20'0 0.0
2019-Sep-22 08:55N 39°26' W 000°20'0 0.0
2019-Sep-22 08:30N 39°26' W 000°20'0 0.0
2019-Sep-22 08:00N 39°26' W 000°20'0 0.0
2019-Sep-22 07:24N 39°26' W 000°20'0 0.0
2019-Sep-22 07:00N 39°26' W 000°20'0 0.0
2019-Sep-22 06:30N 39°26' W 000°20'0 0.0
2019-Sep-22 05:59N 39°26' W 000°20'0 0.0
2019-Sep-22 05:26N 39°26' W 000°20'0 0.0
2019-Sep-22 04:58N 39°26' W 000°20'0 0.0
2019-Sep-22 04:30N 39°26' W 000°20'0 0.0
2019-Sep-22 04:00N 39°26' W 000°20'0 0.0
2019-Sep-22 03:30N 39°26' W 000°20'0 0.0
2019-Sep-22 02:58N 39°26' W 000°20'0 0.0
2019-Sep-22 02:30N 39°26' W 000°20'0 0.0
2019-Sep-22 01:43N 39°26' W 000°20'0 0.0
2019-Sep-22 01:26N 39°26' W 000°20'0 0.0
2019-Sep-22 00:55N 39°26' W 000°20'0 0.0
2019-Sep-22 00:16N 39°26' W 000°20'0 0.0
2019-Sep-21 23:52N 39°26' W 000°20'0 0.0
2019-Sep-21 23:26N 39°26' W 000°20'0 0.0
2019-Sep-21 22:58N 39°26' W 000°20'0 0.0
2019-Sep-21 22:27N 39°26' W 000°20'0 0.0
2019-Sep-21 21:56N 39°26' W 000°20'0 0.0
2019-Sep-21 21:30N 39°26' W 000°20'0 0.0
2019-Sep-21 20:36N 39°26' W 000°20'0 0.0
2019-Sep-21 20:30N 39°26' W 000°20'0 0.0
2019-Sep-21 20:00N 39°26' W 000°20'0 0.1
2019-Sep-21 19:30N 39°26' W 000°20'2 4.9
2019-Sep-21 19:00N 39°25' W 000°17'2 3.3
2019-Sep-21 18:27N 39°24' W 000°15'0 0.9
2019-Sep-21 17:59N 39°24' W 000°15'0 0.1
2019-Sep-21 17:25N 39°24' W 000°15'0 0.0
2019-Sep-21 17:00N 39°24' W 000°15'0 0.0
2019-Sep-21 16:29N 39°24' W 000°15'0 0.1
2019-Sep-21 15:58N 39°24' W 000°15'0 0.1
2019-Sep-21 15:28N 39°24' W 000°15'0 0.1
2019-Sep-21 14:58N 39°24' W 000°15'0 0.0
2019-Sep-21 14:30N 39°24' W 000°15'0 0.0
2019-Sep-21 14:00N 39°24' W 000°15'0 0.0
2019-Sep-21 13:30N 39°24' W 000°15'0 0.0
2019-Sep-21 12:59N 39°24' W 000°15'0 0.0
2019-Sep-21 12:29N 39°24' W 000°15'0 0.0
2019-Sep-21 11:59N 39°24' W 000°15'0 0.1
2019-Sep-21 11:29N 39°24' W 000°15'1 1.8
2019-Sep-21 11:00N 39°24' W 000°16'3 5.8
2019-Sep-21 10:30N 39°26' W 000°19'0 0.2
2019-Sep-21 09:50N 39°26' W 000°19'0 0.0
2019-Sep-21 09:26N 39°26' W 000°19'0 0.0
2019-Sep-21 08:59N 39°26' W 000°19'0 0.0
2019-Sep-21 08:29N 39°26' W 000°19'0 0.0
2019-Sep-21 07:59N 39°26' W 000°19'0 0.0
2019-Sep-21 07:26N 39°26' W 000°19'0 0.0
2019-Sep-21 06:59N 39°26' W 000°19'0 0.0
2019-Sep-21 06:30N 39°26' W 000°19'0 0.0
2019-Sep-21 06:00N 39°26' W 000°19'0 0.0
2019-Sep-21 05:30N 39°26' W 000°19'0 0.0
2019-Sep-21 05:00N 39°26' W 000°19'0 0.0
2019-Sep-21 04:30N 39°26' W 000°19'0 0.0
2019-Sep-21 03:53N 39°26' W 000°19'0 0.0
2019-Sep-21 03:26N 39°26' W 000°19'0 0.0
2019-Sep-21 02:58N 39°26' W 000°19'0 0.0
2019-Sep-21 02:28N 39°26' W 000°19'0 0.0
2019-Sep-21 01:42N 39°26' W 000°19'0 0.0
2019-Sep-21 01:24N 39°26' W 000°19'0 0.0
2019-Sep-21 00:58N 39°26' W 000°19'0 0.0
2019-Sep-21 00:30N 39°26' W 000°19'0 0.0
2019-Sep-21 00:00N 39°26' W 000°19'1 2.0
2019-Sep-20 23:30N 39°26' W 000°18'3 5.7
2019-Sep-20 23:00N 39°25' W 000°15'2 3.3
2019-Sep-20 22:30N 39°25' W 000°12'0 0.6
2019-Sep-20 22:00N 39°24' W 000°12'4 5.9
2019-Sep-20 21:24N 39°21' W 000°10'15116.0
2019-Sep-20 12:00N 37°00' W 001°18'40816.1 060 / 171014.8 2.2 25.020.425.0
2019-Sep-19 10:42N 37°44' W 009°48'819.0
2019-Sep-19 10:18N 37°52' W 009°50'619.0
2019-Sep-19 09:59N 37°57' W 009°52'1419.0
2019-Sep-19 09:16N 38°10' W 009°57'619.1
2019-Sep-19 08:58N 38°16' W 010°00'919.1
2019-Sep-19 08:30N 38°24' W 010°03'1019.3
2019-Sep-19 07:59N 38°34' W 010°06'919.4
2019-Sep-19 07:30N 38°43' W 010°05'1019.5
2019-Sep-19 07:00N 38°53' W 010°04'1019.3
2019-Sep-19 06:30N 39°03' W 010°03'1019.3
2019-Sep-19 06:00N 39°12' W 010°04'33318.5
2019-Sep-18 12:00N 44°42' W 009°00'13719.4 090 / 211019.6 2.2 21.016.420.0
2019-Sep-18 04:55N 46°44' W 007°31'819.8
2019-Sep-18 04:30N 46°51' W 007°25'1019.3
2019-Sep-18 04:00N 47°00' W 007°19'919.0
2019-Sep-18 03:30N 47°08' W 007°12'1019.2
2019-Sep-18 03:00N 47°17' W 007°06'1019.3
2019-Sep-18 02:30N 47°25' W 006°59'1019.4
2019-Sep-18 02:00N 47°34' W 006°52'918.5
2019-Sep-18 01:30N 47°42' W 006°46'918.9
2019-Sep-18 01:00N 47°50' W 006°39'918.6
2019-Sep-18 00:30N 47°58' W 006°32'919.0
2019-Sep-18 00:00N 48°07' W 006°25'1019.0
2019-Sep-17 23:30N 48°15' W 006°18'1019.5
2019-Sep-17 23:00N 48°23' W 006°11'1019.4
2019-Sep-17 22:30N 48°32' W 006°04'1019.5
2019-Sep-17 22:00N 48°40' W 005°56'1019.3
2019-Sep-17 21:30N 48°49' W 005°49'918.8
2019-Sep-17 21:00N 48°55' W 005°39'919.0
2019-Sep-17 20:30N 48°60' W 005°26'918.9
2019-Sep-17 20:00N 49°04' W 005°13'1019.3
2019-Sep-17 19:30N 49°09' W 005°01'1018.8
2019-Sep-17 18:58N 49°14' W 004°47'1118.5
2019-Sep-17 18:22N 49°20' W 004°33'918.3
2019-Sep-17 17:53N 49°25' W 004°21'2118.2
2019-Sep-17 16:44N 49°37' W 003°55'2219.0
2019-Sep-17 15:34N 49°48' W 003°26'319.7
2019-Sep-17 15:25N 49°50' W 003°22'820.1
2019-Sep-17 15:00N 49°54' W 003°11'1020.2
2019-Sep-17 14:30N 49°58' W 002°56'1020.5
2019-Sep-17 14:00N 50°01' W 002°41'1221.2
2019-Sep-17 13:26N 50°04' W 002°23'920.8
2019-Sep-17 12:59N 50°07' W 002°09'919.9
2019-Sep-17 12:30N 50°09' W 001°54'919.0
2019-Sep-17 12:01N 50°12' W 001°40'918.2
2019-Sep-17 11:30N 50°14' W 001°26'917.6
2019-Sep-17 10:59N 50°17' W 001°13'917.3
2019-Sep-17 10:26N 50°20' W 000°59'717.1
2019-Sep-17 10:00N 50°22' W 000°48'1117.4
2019-Sep-17 09:23N 50°25' W 000°31'1118.3
2019-Sep-17 08:47N 50°28' W 000°15'4518.8
2019-Sep-17 06:23N 50°44' E 000°52'719.3
2019-Sep-17 06:00N 50°49' E 001°00'1220.2
2019-Sep-17 05:26N 50°57' E 001°14'920.2
2019-Sep-17 05:00N 51°02' E 001°24'1019.5
2019-Sep-17 04:31N 51°08' E 001°36'918.8
2019-Sep-17 04:01N 51°14' E 001°47'918.4
2019-Sep-17 03:30N 51°22' E 001°55'918.2
2019-Sep-17 03:00N 51°30' E 002°03'918.2
2019-Sep-17 02:30N 51°36' E 002°13'3618.2
2019-Sep-17 00:32N 52°02' E 002°54'219.2
2019-Sep-17 00:25N 52°02' E 002°58'1119.3
2019-Sep-16 23:52N 52°03' E 003°15'719.6
2019-Sep-16 23:29N 52°03' E 003°27'919.4
2019-Sep-16 23:00N 52°03' E 003°42'713.7
2019-Sep-16 22:30N 52°02' E 003°53'611.9
2019-Sep-16 22:00N 51°60' E 004°02'3 5.1
2019-Sep-16 21:30N 51°58' E 004°05'0 0.8
2019-Sep-16 21:00N 51°58' E 004°04'0 0.0
2019-Sep-16 20:30N 51°58' E 004°04'0 0.0
2019-Sep-16 20:00N 51°58' E 004°04'0 0.0
2019-Sep-16 19:30N 51°58' E 004°04'0 0.0
2019-Sep-16 19:00N 51°58' E 004°04'0 0.0
2019-Sep-16 18:30N 51°58' E 004°04'0 0.0
2019-Sep-16 18:00N 51°58' E 004°04'0 0.0
2019-Sep-16 17:30N 51°58' E 004°04'0 0.0
2019-Sep-16 17:00N 51°58' E 004°04'0 0.0
2019-Sep-16 16:30N 51°58' E 004°04'0 0.0
2019-Sep-16 16:00N 51°58' E 004°04'0 0.0
2019-Sep-16 15:30N 51°58' E 004°04'0 0.0
2019-Sep-16 15:00N 51°58' E 004°04'0 0.0
2019-Sep-16 14:29N 51°58' E 004°04'0 0.0
2019-Sep-16 13:59N 51°58' E 004°04'0 0.0
2019-Sep-16 13:30N 51°58' E 004°04'0 0.0
2019-Sep-16 13:00N 51°58' E 004°04'0 0.0
2019-Sep-16 12:30N 51°58' E 004°04'0 0.0
2019-Sep-16 12:00N 51°58' E 004°04'0 0.0
2019-Sep-16 11:30N 51°58' E 004°04'0 0.0
2019-Sep-16 11:00N 51°58' E 004°04'0 0.0
2019-Sep-16 10:29N 51°58' E 004°04'0 0.0
2019-Sep-16 09:58N 51°58' E 004°04'0 0.0
2019-Sep-16 09:28N 51°58' E 004°04'0 0.0
2019-Sep-16 09:00N 51°58' E 004°04'0 0.0
2019-Sep-16 08:30N 51°58' E 004°04'0 0.0
2019-Sep-16 08:00N 51°58' E 004°04'0 0.0
2019-Sep-16 07:30N 51°58' E 004°04'0 0.0
2019-Sep-16 07:00N 51°58' E 004°04'0 0.0
2019-Sep-16 06:30N 51°58' E 004°04'0 0.0
2019-Sep-16 06:00N 51°58' E 004°04'0 0.0
2019-Sep-16 05:30N 51°58' E 004°04'0 0.0
2019-Sep-16 05:00N 51°58' E 004°04'0 0.0
2019-Sep-16 04:30N 51°58' E 004°04'0 0.0
2019-Sep-16 03:59N 51°58' E 004°04'0 0.0
2019-Sep-16 03:29N 51°58' E 004°04'0 0.0
2019-Sep-16 02:59N 51°58' E 004°04'0 0.0
2019-Sep-16 02:26N 51°58' E 004°04'0 0.0
2019-Sep-16 01:59N 51°58' E 004°04'0 0.2
2019-Sep-16 01:30N 51°58' E 004°04'2 3.1
2019-Sep-16 01:01N 51°59' E 004°03'4 7.5
2019-Sep-16 00:31N 52°00' E 003°58'612.8
2019-Sep-16 00:00N 51°59' E 003°47'4 8.3
2019-Sep-15 23:31N 51°58' E 003°41'5 9.2
2019-Sep-15 23:00N 51°56' E 003°34'3 5.0
2019-Sep-15 22:27N 51°55' E 003°30'0 0.0
2019-Sep-15 21:15N 51°55' E 003°30'0 0.0
2019-Sep-15 21:00N 51°55' E 003°30'0 0.0
2019-Sep-15 20:15N 51°55' E 003°30'0 0.0
2019-Sep-15 19:39N 51°55' E 003°30'0 0.2
2019-Sep-15 19:18N 51°55' E 003°30'0 0.1
2019-Sep-15 19:00N 51°55' E 003°30'4 6.0
2019-Sep-15 18:25N 51°53' E 003°26'916.9
2019-Sep-15 17:55N 51°46' E 003°16'615.3
2019-Sep-15 17:30N 51°40' E 003°13'1316.3
2019-Sep-15 16:43N 51°29' E 003°03'417.2
2019-Sep-15 16:30N 51°26' E 002°59'815.3
2019-Sep-15 15:58N 51°24' E 003°12'816.8
2019-Sep-15 15:30N 51°25' E 003°24'714.4
2019-Sep-15 15:01N 51°26' E 003°36'510.5
2019-Sep-15 14:31N 51°23' E 003°43'713.5
2019-Sep-15 14:00N 51°21' E 003°53'612.6
2019-Sep-15 13:30N 51°26' E 003°59'611.4
2019-Sep-15 13:00N 51°22' E 004°06'5 9.8
2019-Sep-15 12:30N 51°22' E 004°14'4 7.7
2019-Sep-15 12:00N 51°18' E 004°17'1 1.6
2019-Sep-15 11:28N 51°18' E 004°16'0 0.0
2019-Sep-15 10:58N 51°18' E 004°16'0 0.0
2019-Sep-15 10:30N 51°18' E 004°16'0 0.0
2019-Sep-15 10:00N 51°18' E 004°16'0 0.0
2019-Sep-15 09:30N 51°18' E 004°16'0 0.0
2019-Sep-15 09:00N 51°18' E 004°16'0 0.0
2019-Sep-15 08:30N 51°18' E 004°16'0 0.0
2019-Sep-15 08:00N 51°18' E 004°16'0 0.0
2019-Sep-15 07:30N 51°18' E 004°16'0 0.0
2019-Sep-15 07:00N 51°18' E 004°16'0 0.0
2019-Sep-15 06:30N 51°18' E 004°16'0 0.0
2019-Sep-15 06:00N 51°18' E 004°16'0 0.0
2019-Sep-15 05:30N 51°18' E 004°16'0 0.0
2019-Sep-15 04:57N 51°18' E 004°16'0 0.0
2019-Sep-15 04:30N 51°18' E 004°16'0 0.0
2019-Sep-15 04:00N 51°18' E 004°16'0 0.0
2019-Sep-15 03:29N 51°18' E 004°16'0 0.0
2019-Sep-15 02:59N 51°18' E 004°16'0 0.0
2019-Sep-15 02:29N 51°18' E 004°16'0 0.0
2019-Sep-15 01:59N 51°18' E 004°16'0 0.0
2019-Sep-15 01:29N 51°18' E 004°16'0 0.0
2019-Sep-15 00:59N 51°18' E 004°16'0 0.0
2019-Sep-15 00:29N 51°18' E 004°16'0 0.0
2019-Sep-14 23:59N 51°18' E 004°16'0 0.0
2019-Sep-14 23:29N 51°18' E 004°16'0 0.0
2019-Sep-14 22:59N 51°18' E 004°16'0 0.0
2019-Sep-14 22:28N 51°18' E 004°16'0 0.0
2019-Sep-14 21:58N 51°18' E 004°16'0 0.0
2019-Sep-14 21:28N 51°18' E 004°16'0 0.0
2019-Sep-14 20:57N 51°18' E 004°16'0 0.0
2019-Sep-14 20:30N 51°18' E 004°16'0 0.0
2019-Sep-14 20:00N 51°18' E 004°16'0 0.0
2019-Sep-14 19:30N 51°18' E 004°16'0 0.0
2019-Sep-14 19:00N 51°18' E 004°16'0 0.1
2019-Sep-14 18:30N 51°18' E 004°16'0 0.6
2019-Sep-14 17:59N 51°17' E 004°15'0 0.0
2019-Sep-14 17:26N 51°17' E 004°15'0 0.0
2019-Sep-14 16:59N 51°17' E 004°15'0 0.0
2019-Sep-14 16:29N 51°17' E 004°15'0 0.0
2019-Sep-14 15:59N 51°17' E 004°15'0 0.0
2019-Sep-14 15:29N 51°17' E 004°15'0 0.0
2019-Sep-14 14:59N 51°17' E 004°15'0 0.0
2019-Sep-14 14:23N 51°17' E 004°15'0 0.0
2019-Sep-14 13:59N 51°17' E 004°15'0 0.0
2019-Sep-14 13:29N 51°17' E 004°15'0 0.0
2019-Sep-14 12:59N 51°17' E 004°15'0 0.0
2019-Sep-14 12:29N 51°17' E 004°15'0 0.0
2019-Sep-14 11:59N 51°17' E 004°15'0 0.0
2019-Sep-14 11:30N 51°17' E 004°15'0 0.0
2019-Sep-14 10:59N 51°17' E 004°15'0 0.0
2019-Sep-14 10:29N 51°17' E 004°15'0 0.0
2019-Sep-14 09:56N 51°17' E 004°15'0 0.0
2019-Sep-14 09:29N 51°17' E 004°15'0 0.0
2019-Sep-14 08:59N 51°17' E 004°15'0 0.0
2019-Sep-14 08:29N 51°17' E 004°15'0 0.0
2019-Sep-14 07:59N 51°17' E 004°15'0 0.0
2019-Sep-14 07:30N 51°17' E 004°15'0 0.0
2019-Sep-14 06:58N 51°17' E 004°15'0 0.0
2019-Sep-14 06:28N 51°17' E 004°15'0 0.0
2019-Sep-14 05:58N 51°17' E 004°15'0 0.0
2019-Sep-14 05:28N 51°17' E 004°15'0 0.0
2019-Sep-14 04:58N 51°17' E 004°15'0 0.0
2019-Sep-14 04:28N 51°17' E 004°15'0 0.0
2019-Sep-14 03:58N 51°17' E 004°15'0 0.0
2019-Sep-14 03:28N 51°17' E 004°15'0 0.0
2019-Sep-14 02:58N 51°17' E 004°15'0 0.0
2019-Sep-14 02:30N 51°17' E 004°15'0 0.0
2019-Sep-14 02:00N 51°17' E 004°15'0 0.0
2019-Sep-14 01:30N 51°17' E 004°15'0 0.0
2019-Sep-14 00:59N 51°17' E 004°15'0 0.0
2019-Sep-14 00:29N 51°17' E 004°15'0 0.0
2019-Sep-13 23:58N 51°17' E 004°15'0 0.0
2019-Sep-13 23:30N 51°17' E 004°15'0 0.0
2019-Sep-13 22:59N 51°17' E 004°15'0 0.0
2019-Sep-13 22:29N 51°17' E 004°15'0 0.0
2019-Sep-13 21:59N 51°17' E 004°15'0 0.0
2019-Sep-13 21:29N 51°17' E 004°15'0 0.0
2019-Sep-13 20:59N 51°17' E 004°15'0 0.0
2019-Sep-13 20:29N 51°17' E 004°15'0 0.0
2019-Sep-13 19:59N 51°17' E 004°15'0 0.0
2019-Sep-13 19:29N 51°17' E 004°15'0 0.0
2019-Sep-13 19:01N 51°17' E 004°15'0 0.0
2019-Sep-13 18:30N 51°17' E 004°15'0 0.1
2019-Sep-13 18:00N 51°17' E 004°15'1 2.8
2019-Sep-13 17:30N 51°19' E 004°16'3 6.6
2019-Sep-13 17:00N 51°22' E 004°14'4 8.3
2019-Sep-13 16:30N 51°22' E 004°07'611.4
2019-Sep-13 16:00N 51°26' E 004°00'510.9
2019-Sep-13 15:30N 51°22' E 003°55'612.5
2019-Sep-13 15:00N 51°22' E 003°45'612.1
2019-Sep-13 14:30N 51°26' E 003°38'510.2
2019-Sep-13 14:00N 51°25' E 003°30'1618.9
2019-Sep-13 13:10N 51°24' E 003°05'1118.6
2019-Sep-13 12:33N 51°24' E 002°46'214.6
2019-Sep-13 12:23N 51°22' E 002°43'513.1
2019-Sep-13 11:59N 51°22' E 002°35'919.5
2019-Sep-13 11:31N 51°19' E 002°21'917.8
2019-Sep-13 11:00N 51°20' E 002°07'815.9
2019-Sep-13 10:30N 51°24' E 001°56'816.2
2019-Sep-13 10:01N 51°31' E 001°49'917.1
2019-Sep-13 09:30N 51°39' E 001°44'918.7
2019-Sep-13 09:00N 51°49' E 001°43'4 8.2
2019-Sep-13 08:30N 51°49' E 001°36'815.2
2019-Sep-13 08:00N 51°42' E 001°29'817.0
2019-Sep-13 07:30N 51°37' E 001°19'917.2
2019-Sep-13 07:00N 51°32' E 001°07'917.2
2019-Sep-13 06:30N 51°29' E 000°54'816.0
2019-Sep-13 06:01N 51°30' E 000°41'612.2
2019-Sep-13 05:31N 51°30' E 000°31'1 2.1
2019-Sep-13 05:00N 51°30' E 000°30'0 0.0
2019-Sep-13 04:30N 51°30' E 000°30'0 0.0
2019-Sep-13 04:00N 51°30' E 000°30'0 0.0
2019-Sep-13 03:30N 51°30' E 000°30'0 0.0
2019-Sep-13 03:00N 51°30' E 000°30'0 0.0
2019-Sep-13 02:30N 51°30' E 000°30'  

Dump ship's entire track history